sensor_id;sensor_type;location;lat;lon;timestamp;P1;durP1;ratioP1;P2;durP2;ratioP2
11473;SDS011;5793;52.238;13.438;2023-10-09T00:00:06;5.33;;;2.03;;
11473;SDS011;5793;52.238;13.438;2023-10-09T00:03:02;6.03;;;2.50;;
11473;SDS011;5793;52.238;13.438;2023-10-09T00:05:30;3.13;;;2.00;;
11473;SDS011;5793;52.238;13.438;2023-10-09T00:08:06;3.43;;;2.30;;
11473;SDS011;5793;52.238;13.438;2023-10-09T00:10:37;3.40;;;2.23;;
11473;SDS011;5793;52.238;13.438;2023-10-09T00:13:15;3.67;;;2.10;;
11473;SDS011;5793;52.238;13.438;2023-10-09T00:15:43;3.43;;;2.13;;
11473;SDS011;5793;52.238;13.438;2023-10-09T00:18:19;3.03;;;2.10;;
11473;SDS011;5793;52.238;13.438;2023-10-09T00:20:55;3.90;;;2.10;;
11473;SDS011;5793;52.238;13.438;2023-10-09T00:23:27;3.50;;;2.27;;
11473;SDS011;5793;52.238;13.438;2023-10-09T00:25:57;3.43;;;2.07;;
11473;SDS011;5793;52.238;13.438;2023-10-09T00:28:37;3.57;;;2.30;;
11473;SDS011;5793;52.238;13.438;2023-10-09T00:31:09;4.17;;;2.50;;
11473;SDS011;5793;52.238;13.438;2023-10-09T00:33:44;4.67;;;2.27;;
11473;SDS011;5793;52.238;13.438;2023-10-09T00:36:12;4.83;;;2.43;;
11473;SDS011;5793;52.238;13.438;2023-10-09T00:38:44;3.37;;;2.33;;
11473;SDS011;5793;52.238;13.438;2023-10-09T00:41:15;3.00;;;2.40;;
11473;SDS011;5793;52.238;13.438;2023-10-09T00:43:46;2.87;;;2.40;;
11473;SDS011;5793;52.238;13.438;2023-10-09T00:46:16;4.50;;;2.63;;
11473;SDS011;5793;52.238;13.438;2023-10-09T00:48:53;3.13;;;2.40;;
11473;SDS011;5793;52.238;13.438;2023-10-09T00:51:23;5.03;;;2.40;;
11473;SDS011;5793;52.238;13.438;2023-10-09T00:53:54;4.40;;;2.90;;
11473;SDS011;5793;52.238;13.438;2023-10-09T00:56:25;4.20;;;2.70;;
11473;SDS011;5793;52.238;13.438;2023-10-09T00:59:05;4.10;;;2.90;;
11473;SDS011;5793;52.238;13.438;2023-10-09T01:01:36;7.30;;;2.87;;
11473;SDS011;5793;52.238;13.438;2023-10-09T01:04:08;3.80;;;2.40;;
11473;SDS011;5793;52.238;13.438;2023-10-09T01:06:39;4.97;;;2.53;;
11473;SDS011;5793;52.238;13.438;2023-10-09T01:09:11;4.53;;;2.43;;
11473;SDS011;5793;52.238;13.438;2023-10-09T01:11:40;3.93;;;2.83;;
11473;SDS011;5793;52.238;13.438;2023-10-09T01:14:15;3.43;;;2.20;;
11473;SDS011;5793;52.238;13.438;2023-10-09T01:16:43;3.67;;;2.87;;
11473;SDS011;5793;52.238;13.438;2023-10-09T01:19:14;4.13;;;2.70;;
11473;SDS011;5793;52.238;13.438;2023-10-09T01:21:50;4.17;;;3.00;;
11473;SDS011;5793;52.238;13.438;2023-10-09T01:24:19;4.43;;;2.70;;
11473;SDS011;5793;52.238;13.438;2023-10-09T01:26:49;4.20;;;2.80;;
11473;SDS011;5793;52.238;13.438;2023-10-09T01:29:21;6.20;;;2.80;;
11473;SDS011;5793;52.238;13.438;2023-10-09T01:31:54;3.87;;;3.10;;
11473;SDS011;5793;52.238;13.438;2023-10-09T01:34:23;6.17;;;3.40;;
11473;SDS011;5793;52.238;13.438;2023-10-09T01:37:00;5.20;;;3.50;;
11473;SDS011;5793;52.238;13.438;2023-10-09T01:39:32;6.50;;;3.17;;
11473;SDS011;5793;52.238;13.438;2023-10-09T01:42:06;4.27;;;3.10;;
11473;SDS011;5793;52.238;13.438;2023-10-09T01:44:34;4.43;;;3.60;;
11473;SDS011;5793;52.238;13.438;2023-10-09T01:47:02;5.13;;;3.30;;
11473;SDS011;5793;52.238;13.438;2023-10-09T01:49:34;5.50;;;3.40;;
11473;SDS011;5793;52.238;13.438;2023-10-09T01:52:03;4.50;;;3.00;;
11473;SDS011;5793;52.238;13.438;2023-10-09T01:54:37;4.97;;;3.53;;
11473;SDS011;5793;52.238;13.438;2023-10-09T01:57:06;4.47;;;3.50;;
11473;SDS011;5793;52.238;13.438;2023-10-09T01:59:38;5.23;;;3.70;;
11473;SDS011;5793;52.238;13.438;2023-10-09T02:02:10;6.97;;;4.40;;
11473;SDS011;5793;52.238;13.438;2023-10-09T02:04:53;5.73;;;4.17;;
11473;SDS011;5793;52.238;13.438;2023-10-09T02:07:30;5.47;;;3.90;;
11473;SDS011;5793;52.238;13.438;2023-10-09T02:10:08;6.83;;;4.23;;
11473;SDS011;5793;52.238;13.438;2023-10-09T02:12:48;5.93;;;4.40;;
11473;SDS011;5793;52.238;13.438;2023-10-09T02:15:19;4.83;;;4.00;;
11473;SDS011;5793;52.238;13.438;2023-10-09T02:18:06;6.43;;;4.50;;
11473;SDS011;5793;52.238;13.438;2023-10-09T02:20:45;5.40;;;4.07;;
11473;SDS011;5793;52.238;13.438;2023-10-09T02:23:21;4.83;;;4.00;;
11473;SDS011;5793;52.238;13.438;2023-10-09T02:25:57;5.57;;;4.33;;
11473;SDS011;5793;52.238;13.438;2023-10-09T02:28:28;6.43;;;4.30;;
11473;SDS011;5793;52.238;13.438;2023-10-09T02:30:59;7.67;;;4.83;;
11473;SDS011;5793;52.238;13.438;2023-10-09T02:33:30;4.53;;;3.63;;
11473;SDS011;5793;52.238;13.438;2023-10-09T02:35:59;6.43;;;3.87;;
11473;SDS011;5793;52.238;13.438;2023-10-09T02:38:31;5.63;;;3.90;;
11473;SDS011;5793;52.238;13.438;2023-10-09T02:41:03;9.33;;;3.80;;
11473;SDS011;5793;52.238;13.438;2023-10-09T02:43:47;4.70;;;4.20;;
11473;SDS011;5793;52.238;13.438;2023-10-09T02:46:17;5.57;;;3.90;;
11473;SDS011;5793;52.238;13.438;2023-10-09T02:48:47;6.33;;;4.27;;
11473;SDS011;5793;52.238;13.438;2023-10-09T02:51:17;6.87;;;4.43;;
11473;SDS011;5793;52.238;13.438;2023-10-09T02:53:59;6.93;;;4.57;;
11473;SDS011;5793;52.238;13.438;2023-10-09T02:56:46;6.53;;;4.87;;
11473;SDS011;5793;52.238;13.438;2023-10-09T02:59:21;6.50;;;4.37;;
11473;SDS011;5793;52.238;13.438;2023-10-09T03:01:50;6.33;;;4.57;;
11473;SDS011;5793;52.238;13.438;2023-10-09T03:04:19;6.60;;;4.20;;
11473;SDS011;5793;52.238;13.438;2023-10-09T03:06:50;6.87;;;4.33;;
11473;SDS011;5793;52.238;13.438;2023-10-09T03:09:19;5.10;;;4.50;;
11473;SDS011;5793;52.238;13.438;2023-10-09T03:11:55;5.70;;;4.43;;
11473;SDS011;5793;52.238;13.438;2023-10-09T03:14:29;6.77;;;4.70;;
11473;SDS011;5793;52.238;13.438;2023-10-09T03:16:57;5.97;;;4.80;;
11473;SDS011;5793;52.238;13.438;2023-10-09T03:19:26;5.20;;;4.00;;
11473;SDS011;5793;52.238;13.438;2023-10-09T03:21:55;7.00;;;4.67;;
11473;SDS011;5793;52.238;13.438;2023-10-09T03:24:24;6.20;;;4.47;;
11473;SDS011;5793;52.238;13.438;2023-10-09T03:26:55;6.03;;;4.30;;
11473;SDS011;5793;52.238;13.438;2023-10-09T03:29:23;7.87;;;4.23;;
11473;SDS011;5793;52.238;13.438;2023-10-09T03:31:51;5.67;;;4.13;;
11473;SDS011;5793;52.238;13.438;2023-10-09T03:34:19;5.60;;;3.83;;
11473;SDS011;5793;52.238;13.438;2023-10-09T03:36:47;6.77;;;4.17;;
11473;SDS011;5793;52.238;13.438;2023-10-09T03:39:17;7.43;;;4.60;;
11473;SDS011;5793;52.238;13.438;2023-10-09T03:41:51;6.57;;;4.23;;
11473;SDS011;5793;52.238;13.438;2023-10-09T03:44:21;5.93;;;3.93;;
11473;SDS011;5793;52.238;13.438;2023-10-09T03:46:49;5.80;;;3.90;;
11473;SDS011;5793;52.238;13.438;2023-10-09T03:49:18;6.97;;;4.00;;
11473;SDS011;5793;52.238;13.438;2023-10-09T03:51:50;6.70;;;3.73;;
11473;SDS011;5793;52.238;13.438;2023-10-09T03:54:18;5.97;;;4.23;;
11473;SDS011;5793;52.238;13.438;2023-10-09T03:56:47;4.77;;;4.00;;
11473;SDS011;5793;52.238;13.438;2023-10-09T03:59:17;4.73;;;4.20;;
11473;SDS011;5793;52.238;13.438;2023-10-09T04:01:47;6.43;;;4.10;;
11473;SDS011;5793;52.238;13.438;2023-10-09T04:04:17;7.43;;;4.30;;
11473;SDS011;5793;52.238;13.438;2023-10-09T04:06:50;5.70;;;4.23;;
11473;SDS011;5793;52.238;13.438;2023-10-09T04:09:18;5.60;;;4.40;;
11473;SDS011;5793;52.238;13.438;2023-10-09T04:12:02;8.33;;;4.90;;
11473;SDS011;5793;52.238;13.438;2023-10-09T04:14:53;7.67;;;5.33;;
11473;SDS011;5793;52.238;13.438;2023-10-09T04:17:29;9.27;;;4.80;;
11473;SDS011;5793;52.238;13.438;2023-10-09T04:20:01;6.47;;;4.53;;
11473;SDS011;5793;52.238;13.438;2023-10-09T04:23:02;5.93;;;4.50;;
11473;SDS011;5793;52.238;13.438;2023-10-09T04:25:31;6.17;;;4.90;;
11473;SDS011;5793;52.238;13.438;2023-10-09T04:28:09;6.17;;;4.80;;
11473;SDS011;5793;52.238;13.438;2023-10-09T04:30:46;5.63;;;4.40;;
11473;SDS011;5793;52.238;13.438;2023-10-09T04:33:21;7.07;;;5.13;;
11473;SDS011;5793;52.238;13.438;2023-10-09T04:36:07;6.40;;;5.00;;
11473;SDS011;5793;52.238;13.438;2023-10-09T04:38:49;9.63;;;5.33;;
11473;SDS011;5793;52.238;13.438;2023-10-09T04:41:42;6.63;;;5.30;;
11473;SDS011;5793;52.238;13.438;2023-10-09T04:44:25;6.27;;;5.27;;
11473;SDS011;5793;52.238;13.438;2023-10-09T04:46:55;8.37;;;5.40;;
11473;SDS011;5793;52.238;13.438;2023-10-09T04:49:42;6.50;;;4.67;;
11473;SDS011;5793;52.238;13.438;2023-10-09T04:52:16;9.03;;;5.40;;
11473;SDS011;5793;52.238;13.438;2023-10-09T04:55:17;8.10;;;5.50;;
11473;SDS011;5793;52.238;13.438;2023-10-09T04:57:46;6.93;;;5.60;;
11473;SDS011;5793;52.238;13.438;2023-10-09T05:00:28;5.10;;;4.60;;
11473;SDS011;5793;52.238;13.438;2023-10-09T05:03:28;9.80;;;5.27;;
11473;SDS011;5793;52.238;13.438;2023-10-09T05:06:11;7.77;;;5.13;;
11473;SDS011;5793;52.238;13.438;2023-10-09T05:09:09;6.23;;;4.77;;
11473;SDS011;5793;52.238;13.438;2023-10-09T05:11:40;6.60;;;4.70;;
11473;SDS011;5793;52.238;13.438;2023-10-09T05:14:36;7.20;;;5.03;;
11473;SDS011;5793;52.238;13.438;2023-10-09T05:17:06;6.33;;;4.80;;
11473;SDS011;5793;52.238;13.438;2023-10-09T05:19:42;6.93;;;4.93;;
11473;SDS011;5793;52.238;13.438;2023-10-09T05:22:22;6.90;;;5.20;;
11473;SDS011;5793;52.238;13.438;2023-10-09T05:25:02;5.43;;;4.90;;
11473;SDS011;5793;52.238;13.438;2023-10-09T05:27:42;7.47;;;4.60;;
11473;SDS011;5793;52.238;13.438;2023-10-09T05:30:17;7.73;;;5.00;;
11473;SDS011;5793;52.238;13.438;2023-10-09T05:32:53;5.00;;;4.20;;
11473;SDS011;5793;52.238;13.438;2023-10-09T05:35:42;5.53;;;3.87;;
11473;SDS011;5793;52.238;13.438;2023-10-09T05:38:31;6.60;;;4.27;;
11473;SDS011;5793;52.238;13.438;2023-10-09T05:41:02;5.07;;;4.37;;
11473;SDS011;5793;52.238;13.438;2023-10-09T05:43:53;6.73;;;4.60;;
11473;SDS011;5793;52.238;13.438;2023-10-09T05:46:38;7.47;;;4.70;;
11473;SDS011;5793;52.238;13.438;2023-10-09T05:49:26;7.47;;;4.70;;
11473;SDS011;5793;52.238;13.438;2023-10-09T05:52:12;10.23;;;6.10;;
11473;SDS011;5793;52.238;13.438;2023-10-09T05:54:55;6.50;;;5.03;;
11473;SDS011;5793;52.238;13.438;2023-10-09T05:57:37;6.07;;;4.80;;
11473;SDS011;5793;52.238;13.438;2023-10-09T06:00:22;6.47;;;4.93;;
11473;SDS011;5793;52.238;13.438;2023-10-09T06:03:09;7.07;;;4.53;;
11473;SDS011;5793;52.238;13.438;2023-10-09T06:05:53;5.60;;;4.13;;
11473;SDS011;5793;52.238;13.438;2023-10-09T06:08:30;4.60;;;3.87;;
11473;SDS011;5793;52.238;13.438;2023-10-09T06:11:32;5.20;;;4.27;;
11473;SDS011;5793;52.238;13.438;2023-10-09T06:14:05;5.00;;;4.17;;
11473;SDS011;5793;52.238;13.438;2023-10-09T06:16:40;4.97;;;4.20;;
11473;SDS011;5793;52.238;13.438;2023-10-09T06:19:10;5.53;;;4.17;;
11473;SDS011;5793;52.238;13.438;2023-10-09T06:21:53;5.23;;;4.10;;
11473;SDS011;5793;52.238;13.438;2023-10-09T06:25:07;5.43;;;4.00;;
11473;SDS011;5793;52.238;13.438;2023-10-09T06:27:36;4.33;;;3.93;;
11473;SDS011;5793;52.238;13.438;2023-10-09T06:30:21;6.20;;;3.93;;
11473;SDS011;5793;52.238;13.438;2023-10-09T06:32:53;6.17;;;4.77;;
11473;SDS011;5793;52.238;13.438;2023-10-09T06:35:46;8.20;;;4.47;;
11473;SDS011;5793;52.238;13.438;2023-10-09T06:38:20;5.43;;;3.90;;
11473;SDS011;5793;52.238;13.438;2023-10-09T06:41:00;5.20;;;3.90;;
11473;SDS011;5793;52.238;13.438;2023-10-09T06:44:02;4.70;;;3.90;;
11473;SDS011;5793;52.238;13.438;2023-10-09T06:46:33;4.73;;;3.60;;
11473;SDS011;5793;52.238;13.438;2023-10-09T06:49:10;5.53;;;4.37;;
11473;SDS011;5793;52.238;13.438;2023-10-09T06:52:04;6.30;;;3.93;;
11473;SDS011;5793;52.238;13.438;2023-10-09T06:54:42;4.47;;;3.83;;
11473;SDS011;5793;52.238;13.438;2023-10-09T06:57:17;5.03;;;4.40;;
11473;SDS011;5793;52.238;13.438;2023-10-09T07:00:07;9.27;;;4.77;;
11473;SDS011;5793;52.238;13.438;2023-10-09T07:02:53;5.90;;;4.43;;
11473;SDS011;5793;52.238;13.438;2023-10-09T07:05:23;7.00;;;4.23;;
11473;SDS011;5793;52.238;13.438;2023-10-09T07:08:03;4.93;;;4.40;;
11473;SDS011;5793;52.238;13.438;2023-10-09T07:10:51;5.73;;;4.37;;
11473;SDS011;5793;52.238;13.438;2023-10-09T07:13:38;5.73;;;4.20;;
11473;SDS011;5793;52.238;13.438;2023-10-09T07:16:08;7.03;;;4.30;;
11473;SDS011;5793;52.238;13.438;2023-10-09T07:18:50;5.83;;;4.00;;
11473;SDS011;5793;52.238;13.438;2023-10-09T07:21:20;5.00;;;3.90;;
11473;SDS011;5793;52.238;13.438;2023-10-09T07:23:56;5.40;;;3.93;;
11473;SDS011;5793;52.238;13.438;2023-10-09T07:26:24;6.47;;;4.20;;
11473;SDS011;5793;52.238;13.438;2023-10-09T07:29:03;4.57;;;3.83;;
11473;SDS011;5793;52.238;13.438;2023-10-09T07:31:52;4.93;;;3.47;;
11473;SDS011;5793;52.238;13.438;2023-10-09T07:34:39;4.97;;;3.60;;
11473;SDS011;5793;52.238;13.438;2023-10-09T07:37:25;5.27;;;3.83;;
11473;SDS011;5793;52.238;13.438;2023-10-09T07:39:57;5.03;;;3.30;;
11473;SDS011;5793;52.238;13.438;2023-10-09T07:42:25;5.77;;;3.70;;
11473;SDS011;5793;52.238;13.438;2023-10-09T07:45:00;4.83;;;3.80;;
11473;SDS011;5793;52.238;13.438;2023-10-09T07:47:40;5.33;;;3.50;;
11473;SDS011;5793;52.238;13.438;2023-10-09T07:50:27;6.20;;;3.63;;
11473;SDS011;5793;52.238;13.438;2023-10-09T07:53:04;6.10;;;3.80;;
11473;SDS011;5793;52.238;13.438;2023-10-09T07:55:53;4.40;;;3.67;;
11473;SDS011;5793;52.238;13.438;2023-10-09T07:58:25;4.40;;;3.60;;
11473;SDS011;5793;52.238;13.438;2023-10-09T08:00:53;7.50;;;3.60;;
11473;SDS011;5793;52.238;13.438;2023-10-09T08:03:36;4.73;;;3.57;;
11473;SDS011;5793;52.238;13.438;2023-10-09T08:06:04;3.93;;;3.20;;
11473;SDS011;5793;52.238;13.438;2023-10-09T08:08:56;4.70;;;3.20;;
11473;SDS011;5793;52.238;13.438;2023-10-09T08:11:48;3.88;;;3.17;;
11473;SDS011;5793;52.238;13.438;2023-10-09T08:14:30;4.97;;;3.57;;
11473;SDS011;5793;52.238;13.438;2023-10-09T08:17:15;4.83;;;3.30;;
11473;SDS011;5793;52.238;13.438;2023-10-09T08:19:48;6.37;;;3.67;;
11473;SDS011;5793;52.238;13.438;2023-10-09T08:22:26;4.13;;;2.93;;
11473;SDS011;5793;52.238;13.438;2023-10-09T08:25:16;6.27;;;3.50;;
11473;SDS011;5793;52.238;13.438;2023-10-09T08:27:58;5.23;;;3.57;;
11473;SDS011;5793;52.238;13.438;2023-10-09T08:30:41;5.47;;;3.57;;
11473;SDS011;5793;52.238;13.438;2023-10-09T08:33:16;4.27;;;3.23;;
11473;SDS011;5793;52.238;13.438;2023-10-09T08:36:11;4.30;;;3.33;;
11473;SDS011;5793;52.238;13.438;2023-10-09T08:38:41;4.03;;;3.60;;
11473;SDS011;5793;52.238;13.438;2023-10-09T08:41:10;4.57;;;3.70;;
11473;SDS011;5793;52.238;13.438;2023-10-09T08:43:47;6.40;;;3.73;;
11473;SDS011;5793;52.238;13.438;2023-10-09T08:46:21;5.83;;;3.90;;
11473;SDS011;5793;52.238;13.438;2023-10-09T08:48:54;5.13;;;3.40;;
11473;SDS011;5793;52.238;13.438;2023-10-09T08:51:25;6.27;;;3.57;;
11473;SDS011;5793;52.238;13.438;2023-10-09T08:53:53;4.53;;;3.67;;
11473;SDS011;5793;52.238;13.438;2023-10-09T08:56:21;3.90;;;3.43;;
11473;SDS011;5793;52.238;13.438;2023-10-09T08:58:50;4.00;;;3.23;;
11473;SDS011;5793;52.238;13.438;2023-10-09T09:01:20;6.57;;;3.80;;
11473;SDS011;5793;52.238;13.438;2023-10-09T09:03:49;4.63;;;3.80;;
11473;SDS011;5793;52.238;13.438;2023-10-09T09:06:17;5.83;;;4.10;;
11473;SDS011;5793;52.238;13.438;2023-10-09T09:08:47;6.70;;;3.60;;
11473;SDS011;5793;52.238;13.438;2023-10-09T09:11:16;4.00;;;3.60;;
11473;SDS011;5793;52.238;13.438;2023-10-09T09:13:59;5.30;;;4.00;;
11473;SDS011;5793;52.238;13.438;2023-10-09T09:16:32;5.93;;;4.27;;
11473;SDS011;5793;52.238;13.438;2023-10-09T09:19:02;5.77;;;4.17;;
11473;SDS011;5793;52.238;13.438;2023-10-09T09:21:38;5.97;;;3.97;;
11473;SDS011;5793;52.238;13.438;2023-10-09T09:24:11;5.33;;;3.87;;
11473;SDS011;5793;52.238;13.438;2023-10-09T09:26:53;6.73;;;4.10;;
11473;SDS011;5793;52.238;13.438;2023-10-09T09:29:37;5.20;;;4.00;;
11473;SDS011;5793;52.238;13.438;2023-10-09T09:32:07;5.07;;;4.30;;
11473;SDS011;5793;52.238;13.438;2023-10-09T09:34:44;4.80;;;3.90;;
11473;SDS011;5793;52.238;13.438;2023-10-09T09:37:21;4.90;;;3.63;;
11473;SDS011;5793;52.238;13.438;2023-10-09T09:39:56;5.17;;;3.73;;
11473;SDS011;5793;52.238;13.438;2023-10-09T09:42:27;6.43;;;3.73;;
11473;SDS011;5793;52.238;13.438;2023-10-09T09:44:58;5.27;;;3.77;;
11473;SDS011;5793;52.238;13.438;2023-10-09T09:47:29;5.60;;;3.60;;
11473;SDS011;5793;52.238;13.438;2023-10-09T09:50:02;6.70;;;3.80;;
11473;SDS011;5793;52.238;13.438;2023-10-09T09:52:38;4.53;;;3.90;;
11473;SDS011;5793;52.238;13.438;2023-10-09T09:55:08;5.20;;;3.63;;
11473;SDS011;5793;52.238;13.438;2023-10-09T09:57:44;5.23;;;3.23;;
11473;SDS011;5793;52.238;13.438;2023-10-09T10:00:19;7.23;;;4.30;;
11473;SDS011;5793;52.238;13.438;2023-10-09T10:02:58;6.72;;;3.90;;
11473;SDS011;5793;52.238;13.438;2023-10-09T10:05:31;5.27;;;3.93;;
11473;SDS011;5793;52.238;13.438;2023-10-09T10:08:00;3.85;;;3.30;;
11473;SDS011;5793;52.238;13.438;2023-10-09T10:10:36;6.28;;;4.10;;
11473;SDS011;5793;52.238;13.438;2023-10-09T10:13:14;5.07;;;4.38;;
11473;SDS011;5793;52.238;13.438;2023-10-09T10:15:57;5.68;;;4.40;;
11473;SDS011;5793;52.238;13.438;2023-10-09T10:18:24;5.03;;;4.37;;
11473;SDS011;5793;52.238;13.438;2023-10-09T10:23:59;4.65;;;3.95;;
11473;SDS011;5793;52.238;13.438;2023-10-09T10:26:34;5.90;;;4.07;;
11473;SDS011;5793;52.238;13.438;2023-10-09T10:29:14;6.60;;;3.88;;
11473;SDS011;5793;52.238;13.438;2023-10-09T10:31:53;4.88;;;4.32;;
11473;SDS011;5793;52.238;13.438;2023-10-09T10:34:23;6.33;;;4.00;;
11473;SDS011;5793;52.238;13.438;2023-10-09T10:36:51;6.07;;;3.88;;
11473;SDS011;5793;52.238;13.438;2023-10-09T10:39:25;4.30;;;3.57;;
11473;SDS011;5793;52.238;13.438;2023-10-09T10:42:08;4.70;;;4.20;;
11473;SDS011;5793;52.238;13.438;2023-10-09T10:44:41;6.13;;;4.27;;
11473;SDS011;5793;52.238;13.438;2023-10-09T10:47:11;5.05;;;3.70;;
11473;SDS011;5793;52.238;13.438;2023-10-09T10:49:52;4.65;;;3.88;;
11473;SDS011;5793;52.238;13.438;2023-10-09T10:52:26;4.57;;;3.95;;
11473;SDS011;5793;52.238;13.438;2023-10-09T10:55:09;4.25;;;3.38;;
11473;SDS011;5793;52.238;13.438;2023-10-09T10:58:02;4.70;;;3.77;;
11473;SDS011;5793;52.238;13.438;2023-10-09T11:00:37;4.05;;;3.40;;
11473;SDS011;5793;52.238;13.438;2023-10-09T11:03:22;4.63;;;3.53;;
11473;SDS011;5793;52.238;13.438;2023-10-09T11:05:56;4.37;;;3.80;;
11473;SDS011;5793;52.238;13.438;2023-10-09T11:08:43;3.97;;;3.47;;
11473;SDS011;5793;52.238;13.438;2023-10-09T11:11:20;3.73;;;3.33;;
11473;SDS011;5793;52.238;13.438;2023-10-09T11:13:50;7.40;;;3.80;;
11473;SDS011;5793;52.238;13.438;2023-10-09T11:16:22;5.10;;;3.60;;
11473;SDS011;5793;52.238;13.438;2023-10-09T11:19:19;4.68;;;3.75;;
11473;SDS011;5793;52.238;13.438;2023-10-09T11:21:58;4.15;;;3.45;;
11473;SDS011;5793;52.238;13.438;2023-10-09T11:24:53;5.70;;;3.97;;
11473;SDS011;5793;52.238;13.438;2023-10-09T11:27:39;4.43;;;4.00;;
11473;SDS011;5793;52.238;13.438;2023-10-09T11:30:16;4.50;;;3.65;;
11473;SDS011;5793;52.238;13.438;2023-10-09T11:33:03;4.93;;;4.43;;
11473;SDS011;5793;52.238;13.438;2023-10-09T11:35:31;5.37;;;4.83;;
11473;SDS011;5793;52.238;13.438;2023-10-09T11:38:01;5.25;;;4.75;;
11473;SDS011;5793;52.238;13.438;2023-10-09T11:40:48;4.85;;;4.25;;
11473;SDS011;5793;52.238;13.438;2023-10-09T11:46:17;5.15;;;3.88;;
11473;SDS011;5793;52.238;13.438;2023-10-09T11:49:06;6.18;;;3.90;;
11473;SDS011;5793;52.238;13.438;2023-10-09T11:52:05;4.60;;;4.20;;
11473;SDS011;5793;52.238;13.438;2023-10-09T11:54:51;6.90;;;4.50;;
11473;SDS011;5793;52.238;13.438;2023-10-09T11:57:26;4.87;;;4.33;;
11473;SDS011;5793;52.238;13.438;2023-10-09T12:00:00;4.80;;;4.30;;
11473;SDS011;5793;52.238;13.438;2023-10-09T12:02:32;5.10;;;4.60;;
11473;SDS011;5793;52.238;13.438;2023-10-09T12:05:10;7.47;;;5.05;;
11473;SDS011;5793;52.238;13.438;2023-10-09T12:07:43;5.40;;;4.90;;
11473;SDS011;5793;52.238;13.438;2023-10-09T12:10:11;5.80;;;5.10;;
11473;SDS011;5793;52.238;13.438;2023-10-09T12:12:54;5.90;;;5.03;;
11473;SDS011;5793;52.238;13.438;2023-10-09T12:15:24;6.30;;;4.75;;
11473;SDS011;5793;52.238;13.438;2023-10-09T12:18:04;6.85;;;4.80;;
11473;SDS011;5793;52.238;13.438;2023-10-09T12:20:38;6.70;;;5.13;;
11473;SDS011;5793;52.238;13.438;2023-10-09T12:23:06;6.13;;;5.23;;
11473;SDS011;5793;52.238;13.438;2023-10-09T12:25:34;6.38;;;5.60;;
11473;SDS011;5793;52.238;13.438;2023-10-09T12:28:03;6.75;;;4.97;;
11473;SDS011;5793;52.238;13.438;2023-10-09T12:30:32;5.60;;;5.00;;
11473;SDS011;5793;52.238;13.438;2023-10-09T12:33:06;5.82;;;5.28;;
11473;SDS011;5793;52.238;13.438;2023-10-09T12:35:38;6.68;;;5.97;;
11473;SDS011;5793;52.238;13.438;2023-10-09T12:38:07;5.80;;;5.30;;
11473;SDS011;5793;52.238;13.438;2023-10-09T12:40:38;6.80;;;6.10;;
11473;SDS011;5793;52.238;13.438;2023-10-09T12:43:10;6.93;;;6.18;;
11473;SDS011;5793;52.238;13.438;2023-10-09T12:45:41;6.40;;;5.13;;
11473;SDS011;5793;52.238;13.438;2023-10-09T12:48:10;7.85;;;6.03;;
11473;SDS011;5793;52.238;13.438;2023-10-09T12:50:39;7.15;;;6.45;;
11473;SDS011;5793;52.238;13.438;2023-10-09T12:53:10;6.47;;;5.80;;
11473;SDS011;5793;52.238;13.438;2023-10-09T12:55:44;6.40;;;5.80;;
11473;SDS011;5793;52.238;13.438;2023-10-09T12:58:13;7.32;;;5.75;;
11473;SDS011;5793;52.238;13.438;2023-10-09T13:00:42;6.43;;;5.82;;
11473;SDS011;5793;52.238;13.438;2023-10-09T13:03:16;6.00;;;5.40;;
11473;SDS011;5793;52.238;13.438;2023-10-09T13:05:46;7.38;;;6.05;;
11473;SDS011;5793;52.238;13.438;2023-10-09T13:08:22;6.78;;;6.07;;
11473;SDS011;5793;52.238;13.438;2023-10-09T13:11:01;6.85;;;6.13;;
11473;SDS011;5793;52.238;13.438;2023-10-09T13:13:38;6.55;;;5.93;;
11473;SDS011;5793;52.238;13.438;2023-10-09T13:16:11;7.03;;;5.65;;
11473;SDS011;5793;52.238;13.438;2023-10-09T13:18:47;6.35;;;5.75;;
11473;SDS011;5793;52.238;13.438;2023-10-09T13:21:18;6.03;;;5.20;;
11473;SDS011;5793;52.238;13.438;2023-10-09T13:23:47;5.85;;;5.30;;
11473;SDS011;5793;52.238;13.438;2023-10-09T13:26:17;7.85;;;5.63;;
11473;SDS011;5793;52.238;13.438;2023-10-09T13:29:01;7.93;;;6.40;;
11473;SDS011;5793;52.238;13.438;2023-10-09T13:31:30;7.72;;;5.55;;
11473;SDS011;5793;52.238;13.438;2023-10-09T13:34:01;6.35;;;5.55;;
11473;SDS011;5793;52.238;13.438;2023-10-09T13:36:30;6.72;;;5.97;;
11473;SDS011;5793;52.238;13.438;2023-10-09T13:38:59;9.57;;;5.65;;
11473;SDS011;5793;52.238;13.438;2023-10-09T13:41:46;7.05;;;5.20;;
11473;SDS011;5793;52.238;13.438;2023-10-09T13:44:16;6.88;;;5.95;;
11473;SDS011;5793;52.238;13.438;2023-10-09T13:46:44;6.75;;;5.45;;
11473;SDS011;5793;52.238;13.438;2023-10-09T13:49:17;7.43;;;5.95;;
11473;SDS011;5793;52.238;13.438;2023-10-09T13:51:44;6.75;;;6.05;;
11473;SDS011;5793;52.238;13.438;2023-10-09T13:54:12;7.47;;;5.60;;
11473;SDS011;5793;52.238;13.438;2023-10-09T13:56:47;7.00;;;6.30;;
11473;SDS011;5793;52.238;13.438;2023-10-09T13:59:20;7.45;;;6.20;;
11473;SDS011;5793;52.238;13.438;2023-10-09T14:01:51;8.00;;;6.40;;
11473;SDS011;5793;52.238;13.438;2023-10-09T14:04:21;7.07;;;6.20;;
11473;SDS011;5793;52.238;13.438;2023-10-09T14:06:49;9.40;;;6.65;;
11473;SDS011;5793;52.238;13.438;2023-10-09T14:09:23;11.30;;;7.03;;
11473;SDS011;5793;52.238;13.438;2023-10-09T14:11:58;7.90;;;6.60;;
11473;SDS011;5793;52.238;13.438;2023-10-09T14:14:35;7.93;;;6.57;;
11473;SDS011;5793;52.238;13.438;2023-10-09T14:17:05;9.80;;;6.70;;
11473;SDS011;5793;52.238;13.438;2023-10-09T14:19:38;7.28;;;6.57;;
11473;SDS011;5793;52.238;13.438;2023-10-09T14:22:13;8.10;;;6.90;;
11473;SDS011;5793;52.238;13.438;2023-10-09T14:24:42;7.32;;;6.53;;
11473;SDS011;5793;52.238;13.438;2023-10-09T14:27:11;8.15;;;6.75;;
11473;SDS011;5793;52.238;13.438;2023-10-09T14:29:45;9.07;;;7.05;;
11473;SDS011;5793;52.238;13.438;2023-10-09T14:32:14;7.82;;;6.78;;
11473;SDS011;5793;52.238;13.438;2023-10-09T14:34:43;7.63;;;6.45;;
11473;SDS011;5793;52.238;13.438;2023-10-09T14:37:16;7.70;;;6.60;;
11473;SDS011;5793;52.238;13.438;2023-10-09T14:39:45;7.03;;;6.32;;
11473;SDS011;5793;52.238;13.438;2023-10-09T14:42:15;6.55;;;5.88;;
11473;SDS011;5793;52.238;13.438;2023-10-09T14:44:43;7.45;;;6.28;;
11473;SDS011;5793;52.238;13.438;2023-10-09T14:47:14;8.55;;;6.80;;
11473;SDS011;5793;52.238;13.438;2023-10-09T14:49:42;8.82;;;7.35;;
11473;SDS011;5793;52.238;13.438;2023-10-09T14:52:13;10.98;;;7.80;;
11473;SDS011;5793;52.238;13.438;2023-10-09T14:54:45;7.28;;;6.55;;
11473;SDS011;5793;52.238;13.438;2023-10-09T14:57:13;9.27;;;7.60;;
11473;SDS011;5793;52.238;13.438;2023-10-09T14:59:41;8.90;;;8.00;;
11473;SDS011;5793;52.238;13.438;2023-10-09T15:02:11;9.60;;;8.60;;
11473;SDS011;5793;52.238;13.438;2023-10-09T15:04:39;8.53;;;7.40;;
11473;SDS011;5793;52.238;13.438;2023-10-09T15:07:07;9.20;;;7.65;;
11473;SDS011;5793;52.238;13.438;2023-10-09T15:09:35;8.95;;;8.05;;
11473;SDS011;5793;52.238;13.438;2023-10-09T15:12:06;8.85;;;7.85;;
11473;SDS011;5793;52.238;13.438;2023-10-09T15:14:35;11.32;;;8.38;;
11473;SDS011;5793;52.238;13.438;2023-10-09T15:17:03;7.78;;;7.03;;
11473;SDS011;5793;52.238;13.438;2023-10-09T15:19:34;12.50;;;7.83;;
11473;SDS011;5793;52.238;13.438;2023-10-09T15:22:03;8.98;;;7.55;;
11473;SDS011;5793;52.238;13.438;2023-10-09T15:24:36;7.03;;;6.32;;
11473;SDS011;5793;52.238;13.438;2023-10-09T15:27:04;7.75;;;6.97;;
11473;SDS011;5793;52.238;13.438;2023-10-09T15:29:32;8.32;;;7.53;;
11473;SDS011;5793;52.238;13.438;2023-10-09T15:32:03;9.40;;;7.88;;
11473;SDS011;5793;52.238;13.438;2023-10-09T15:34:32;9.38;;;8.02;;
11473;SDS011;5793;52.238;13.438;2023-10-09T15:37:03;10.37;;;8.03;;
11473;SDS011;5793;52.238;13.438;2023-10-09T15:39:33;11.15;;;8.75;;
11473;SDS011;5793;52.238;13.438;2023-10-09T15:42:01;8.18;;;7.32;;